createdAt,value
2018-09-01T00:00:48.979Z,13.73
2018-09-01T00:01:48.614Z,13.72
2018-09-01T00:02:48.987Z,13.74
2018-09-01T00:03:48.822Z,13.7
2018-09-01T00:04:48.635Z,13.71
2018-09-01T00:05:48.651Z,13.71
2018-09-01T00:06:48.660Z,13.64
2018-09-01T00:07:48.645Z,13.7
2018-09-01T00:08:48.727Z,13.66
2018-09-01T00:09:48.639Z,13.65
2018-09-01T00:10:48.887Z,13.63
2018-09-01T00:11:48.688Z,13.64
2018-09-01T00:12:48.758Z,13.54
2018-09-01T00:13:48.711Z,13.57
2018-09-01T00:14:48.632Z,13.65
2018-09-01T00:15:48.628Z,13.67
2018-09-01T00:16:48.633Z,13.64
2018-09-01T00:17:48.624Z,13.62
2018-09-01T00:18:48.793Z,13.53
2018-09-01T00:19:48.652Z,13.6
2018-09-01T00:20:48.641Z,13.63
2018-09-01T00:21:48.621Z,13.52
2018-09-01T00:22:48.937Z,13.5
2018-09-01T00:23:48.671Z,13.47
2018-09-01T00:24:48.812Z,13.44
2018-09-01T00:25:48.690Z,13.45
2018-09-01T00:26:48.726Z,13.43
2018-09-01T00:27:48.655Z,13.42
2018-09-01T00:28:48.925Z,13.41
2018-09-01T00:29:48.881Z,13.36
2018-09-01T00:30:49.308Z,13.37
2018-09-01T00:31:48.719Z,13.35
2018-09-01T00:32:48.904Z,13.33
2018-09-01T00:33:48.651Z,13.33
2018-09-01T00:34:48.906Z,13.35
2018-09-01T00:35:48.665Z,13.27
2018-09-01T00:36:48.645Z,13.35
2018-09-01T00:37:48.840Z,13.33
2018-09-01T00:38:48.663Z,13.43
2018-09-01T00:39:48.662Z,13.39
2018-09-01T00:40:48.693Z,13.47
2018-09-01T00:41:48.735Z,13.51
2018-09-01T00:42:48.651Z,13.48
2018-09-01T00:43:48.785Z,13.45
2018-09-01T00:44:48.679Z,13.33
2018-09-01T00:45:48.688Z,13.41
2018-09-01T00:46:48.666Z,13.48
2018-09-01T00:47:48.664Z,13.4
2018-09-01T00:48:48.797Z,13.41
2018-09-01T00:49:48.702Z,13.35
2018-09-01T00:50:48.720Z,13.32
2018-09-01T00:51:48.696Z,13.32
2018-09-01T00:52:48.785Z,13.35
2018-09-01T00:53:48.713Z,13.35
2018-09-01T00:54:48.761Z,13.3
2018-09-01T00:55:48.703Z,13.3
2018-09-01T00:56:48.782Z,13.29
2018-09-01T00:57:49.076Z,13.3
2018-09-01T00:58:48.803Z,13.25
2018-09-01T00:59:48.670Z,13.22
2018-09-01T01:00:49.281Z,13.25
2018-09-01T01:01:49.022Z,13.19
2018-09-01T01:02:49.111Z,13.09
2018-09-01T01:03:48.688Z,12.99
2018-09-01T01:04:48.726Z,13
2018-09-01T01:05:48.936Z,12.96
2018-09-01T01:06:48.774Z,12.98
2018-09-01T01:07:48.775Z,12.91
2018-09-01T01:08:48.784Z,12.86
2018-09-01T01:09:48.678Z,12.88
2018-09-01T01:10:48.744Z,12.93
2018-09-01T01:11:48.699Z,12.86
2018-09-01T01:12:48.678Z,12.83
2018-09-01T01:13:48.679Z,12.8
2018-09-01T01:14:48.765Z,12.97
2018-09-01T01:15:48.745Z,12.89
2018-09-01T01:16:48.769Z,12.92
2018-09-01T01:17:48.790Z,12.94
2018-09-01T01:18:48.705Z,12.89
2018-09-01T01:19:48.761Z,12.86
2018-09-01T01:20:48.755Z,12.87
2018-09-01T01:21:48.714Z,12.89
2018-09-01T01:22:49.047Z,12.85
2018-09-01T01:23:48.698Z,12.79
2018-09-01T01:24:48.762Z,12.93
2018-09-01T01:25:48.878Z,12.89
2018-09-01T01:26:48.770Z,12.88
2018-09-01T01:27:48.713Z,12.79
2018-09-01T01:28:48.790Z,12.79
2018-09-01T01:29:48.738Z,12.89
2018-09-01T01:30:48.702Z,12.92
2018-09-01T01:31:48.777Z,12.91
2018-09-01T01:32:48.763Z,12.84
2018-09-01T01:33:48.769Z,12.76
2018-09-01T01:34:48.826Z,12.86
2018-09-01T01:35:49.138Z,12.76
2018-09-01T01:36:48.809Z,12.75
2018-09-01T01:37:48.737Z,12.83
2018-09-01T01:38:48.849Z,12.82
2018-09-01T01:39:48.747Z,12.85
2018-09-01T01:40:48.835Z,12.8
2018-09-01T01:41:49.283Z,12.83
2018-09-01T01:42:48.727Z,12.83
2018-09-01T01:43:48.744Z,12.8
2018-09-01T01:44:48.780Z,12.75
2018-09-01T01:45:48.724Z,12.71
2018-09-01T01:46:48.722Z,12.72
2018-09-01T01:47:49.121Z,12.84
2018-09-01T01:48:48.730Z,12.91
2018-09-01T01:49:49.032Z,12.86
2018-09-01T01:50:49.060Z,12.8
2018-09-01T01:51:49.250Z,12.86
2018-09-01T01:52:48.835Z,12.87
2018-09-01T01:53:48.778Z,12.77
2018-09-01T01:54:48.731Z,12.7
2018-09-01T01:55:48.741Z,12.7
2018-09-01T01:56:48.749Z,12.7
2018-09-01T01:57:48.740Z,12.89
2018-09-01T01:58:48.737Z,12.88
2018-09-01T01:59:48.730Z,12.82
2018-09-01T02:00:48.745Z,12.82
2018-09-01T02:01:48.759Z,12.78
2018-09-01T02:02:48.821Z,12.78
2018-09-01T02:03:48.735Z,12.77
2018-09-01T02:04:48.775Z,12.69
2018-09-01T02:05:48.817Z,12.61
2018-09-01T02:06:49.050Z,12.58
2018-09-01T02:07:49.392Z,12.66
2018-09-01T02:08:49.163Z,12.62
2018-09-01T02:09:48.833Z,12.49
2018-09-01T02:10:48.771Z,12.52
2018-09-01T02:11:48.771Z,12.37
2018-09-01T02:12:48.752Z,12.4
2018-09-01T02:13:48.760Z,12.34
2018-09-01T02:14:48.804Z,12.33
2018-09-01T02:15:48.767Z,12.38
2018-09-01T02:16:48.783Z,12.32
2018-09-01T02:17:48.837Z,12.31
2018-09-01T02:18:49.027Z,12.32
2018-09-01T02:19:48.793Z,12.34
2018-09-01T02:20:48.767Z,12.19
2018-09-01T02:21:48.785Z,12.23
2018-09-01T02:22:48.900Z,12.28
2018-09-01T02:23:48.784Z,12.27
2018-09-01T02:24:48.778Z,12.25
2018-09-01T02:25:48.786Z,12.28
2018-09-01T02:26:48.870Z,12.27
2018-09-01T02:27:49.099Z,12.21
2018-09-01T02:28:48.784Z,12.2
2018-09-01T02:29:48.897Z,12.16
2018-09-01T02:30:48.777Z,12.2
2018-09-01T02:31:48.821Z,12.22
2018-09-01T02:32:48.905Z,12.21
2018-09-01T02:33:49.056Z,12.16
2018-09-01T02:34:48.813Z,12.15
2018-09-01T02:35:49.156Z,12.08
2018-09-01T02:36:49.140Z,12.04
2018-09-01T02:37:48.819Z,12.05
2018-09-01T02:38:48.798Z,12.08
2018-09-01T02:39:49.241Z,12.04
2018-09-01T02:40:48.802Z,12.05
2018-09-01T02:41:48.965Z,12.04
2018-09-01T02:42:48.852Z,12.05
2018-09-01T02:43:48.795Z,11.96
2018-09-01T02:44:49.107Z,11.9
2018-09-01T02:45:48.789Z,11.93
2018-09-01T02:46:49.281Z,11.99
2018-09-01T02:47:49.168Z,11.97
2018-09-01T02:48:48.807Z,11.91
2018-09-01T02:49:49.064Z,11.89
2018-09-01T02:50:48.811Z,11.84
2018-09-01T02:51:48.817Z,11.88
2018-09-01T02:52:48.836Z,11.87
2018-09-01T02:53:48.936Z,11.83
2018-09-01T02:54:48.897Z,11.82
2018-09-01T02:55:48.819Z,11.94
2018-09-01T02:56:48.977Z,11.87
2018-09-01T02:57:48.808Z,11.73
2018-09-01T02:58:48.843Z,11.69
2018-09-01T02:59:49.168Z,11.72
2018-09-01T03:00:49.053Z,11.61
2018-09-01T03:01:49.048Z,11.68
2018-09-01T03:02:48.840Z,11.73
2018-09-01T03:03:48.840Z,11.72
2018-09-01T03:04:48.817Z,11.64
2018-09-01T03:05:48.997Z,11.58
2018-09-01T03:06:49.001Z,11.6
2018-09-01T03:07:48.799Z,11.47
2018-09-01T03:08:48.816Z,11.45
2018-09-01T03:09:48.881Z,11.46
2018-09-01T03:10:48.853Z,11.55
2018-09-01T03:11:48.894Z,11.52
2018-09-01T03:12:48.842Z,11.49
2018-09-01T03:13:48.827Z,11.44
2018-09-01T03:14:48.841Z,11.41
2018-09-01T03:15:48.839Z,11.48
2018-09-01T03:16:48.844Z,11.44
2018-09-01T03:17:48.843Z,11.45
2018-09-01T03:18:48.883Z,11.45
2018-09-01T03:19:48.877Z,11.31
2018-09-01T03:20:48.835Z,11.41
2018-09-01T03:21:48.910Z,11.39
2018-09-01T03:22:48.877Z,11.4
2018-09-01T03:23:48.846Z,11.4
2018-09-01T03:24:49.044Z,11.01
2018-09-01T03:25:48.940Z,11.17
2018-09-01T03:26:48.852Z,11.17
2018-09-01T03:27:49.133Z,11.18
2018-09-01T03:28:49.116Z,11.05
2018-09-01T03:29:49.138Z,11.11
2018-09-01T03:30:48.852Z,11.16
2018-09-01T03:31:49.100Z,11.1
2018-09-01T03:32:48.903Z,11.16
2018-09-01T03:33:48.911Z,11.15
2018-09-01T03:34:48.952Z,11.15
2018-09-01T03:35:49.067Z,11.11
2018-09-01T03:36:49.077Z,11.06
2018-09-01T03:37:48.866Z,11.1
2018-09-01T03:38:49.190Z,11.16
2018-09-01T03:39:49.112Z,10.93
2018-09-01T03:40:49.067Z,10.83
2018-09-01T03:41:49.396Z,10.8
2018-09-01T03:42:49.245Z,10.86
2018-09-01T03:43:49.009Z,10.91
2018-09-01T03:44:48.887Z,10.95
2018-09-01T03:45:49.026Z,10.83
2018-09-01T03:46:49.193Z,10.87
2018-09-01T03:47:48.894Z,10.82
2018-09-01T03:48:48.869Z,10.77
2018-09-01T03:49:48.896Z,10.82
2018-09-01T03:50:49.058Z,10.91
2018-09-01T03:51:48.956Z,10.9
2018-09-01T03:52:48.873Z,10.84
2018-09-01T03:53:48.872Z,10.82
2018-09-01T03:54:49.013Z,10.81
2018-09-01T03:55:49.078Z,10.78
2018-09-01T03:56:48.905Z,10.79
2018-09-01T03:57:49.012Z,10.7
2018-09-01T03:58:49.248Z,10.73
2018-09-01T03:59:49.154Z,10.75
2018-09-01T04:00:49.012Z,10.76
2018-09-01T04:01:49.031Z,10.73
2018-09-01T04:02:48.886Z,10.78
2018-09-01T04:03:48.875Z,10.73
2018-09-01T04:04:48.919Z,10.57
2018-09-01T04:05:49.033Z,10.6
2018-09-01T04:06:49.071Z,10.58
2018-09-01T04:07:49.072Z,10.57
2018-09-01T04:08:49.182Z,10.56
2018-09-01T04:09:48.911Z,10.48
2018-09-01T04:10:49.257Z,10.39
2018-09-01T04:11:49.059Z,10.4
2018-09-01T04:12:49.053Z,10.38
2018-09-01T04:13:48.908Z,10.42
2018-09-01T04:14:49.034Z,10.43
2018-09-01T04:15:48.921Z,10.36
2018-09-01T04:16:48.889Z,10.21
2018-09-01T04:17:49.107Z,10.3
2018-09-01T04:18:49.019Z,10.33
2018-09-01T04:19:48.911Z,10.27
2018-09-01T04:20:49.110Z,10.3
2018-09-01T04:21:48.935Z,10.29
2018-09-01T04:22:48.955Z,10.29
2018-09-01T04:23:48.909Z,10.28
2018-09-01T04:24:48.973Z,10.29
2018-09-01T04:25:48.907Z,10.26
2018-09-01T04:26:48.926Z,10.21
2018-09-01T04:27:48.974Z,10.21
2018-09-01T04:28:48.918Z,10.24
2018-09-01T04:29:48.941Z,10.21
2018-09-01T04:30:48.938Z,10.22
2018-09-01T04:31:49.157Z,10.2
2018-09-01T04:32:48.967Z,10.15
2018-09-01T04:33:48.992Z,10.13
2018-09-01T04:34:48.983Z,10.04
2018-09-01T04:35:48.927Z,10
2018-09-01T04:36:48.951Z,9.94
2018-09-01T04:37:48.971Z,10
2018-09-01T04:38:48.918Z,10.01
2018-09-01T04:39:48.915Z,9.92
2018-09-01T04:40:48.933Z,9.92
2018-09-01T04:41:49.027Z,9.96
2018-09-01T04:42:49.315Z,9.94
2018-09-01T04:43:48.988Z,9.95
2018-09-01T04:44:48.919Z,9.87
2018-09-01T04:45:48.929Z,9.86
2018-09-01T04:46:48.930Z,9.85
2018-09-01T04:47:49.279Z,9.85
2018-09-01T04:48:49.381Z,9.9
2018-09-01T04:49:49.014Z,9.79
2018-09-01T04:50:49.029Z,9.76
2018-09-01T04:51:48.943Z,9.69
2018-09-01T04:52:48.991Z,9.65
2018-09-01T04:53:48.903Z,9.56
2018-09-01T04:54:49.019Z,9.61
2018-09-01T04:55:49.082Z,9.59
2018-09-01T04:56:49.125Z,9.6
2018-09-01T04:57:48.951Z,9.6
2018-09-01T04:58:49.016Z,9.6
2018-09-01T04:59:49.029Z,9.62
2018-09-01T05:00:49.225Z,9.57
2018-09-01T05:01:49.135Z,9.6
2018-09-01T05:02:49.244Z,9.6
2018-09-01T05:03:49.045Z,9.57
2018-09-01T05:04:49.265Z,9.61
2018-09-01T05:05:49.020Z,9.69
2018-09-01T05:06:48.987Z,9.71
2018-09-01T05:07:49.092Z,9.68
2018-09-01T05:08:48.948Z,9.7
2018-09-01T05:09:49.037Z,9.65
2018-09-01T05:10:48.980Z,9.62
2018-09-01T05:11:49.103Z,9.56
2018-09-01T05:12:49.012Z,9.54
2018-09-01T05:13:49.330Z,9.56
2018-09-01T05:14:49.048Z,9.55
2018-09-01T05:15:49.638Z,9.57
2018-09-01T05:16:49.075Z,9.62
2018-09-01T05:17:49.363Z,9.63
2018-09-01T05:18:49.099Z,9.63
2018-09-01T05:19:49.041Z,9.52
2018-09-01T05:20:49.059Z,9.52
2018-09-01T05:21:49.048Z,9.41
2018-09-01T05:22:49.082Z,9.39
2018-09-01T05:23:49.272Z,9.37
2018-09-01T05:24:49.049Z,9.26
2018-09-01T05:25:49.401Z,9.38
2018-09-01T05:26:49.201Z,9.47
2018-09-01T05:27:48.995Z,9.49
2018-09-01T05:28:48.975Z,9.38
2018-09-01T05:29:48.966Z,9.51
2018-09-01T05:30:48.994Z,9.37
2018-09-01T05:31:49.040Z,9.39
2018-09-01T05:32:49.130Z,9.5
2018-09-01T05:33:49.038Z,9.62
2018-09-01T05:34:49.087Z,9.59
2018-09-01T05:35:49.040Z,9.62
2018-09-01T05:36:49.065Z,9.65
2018-09-01T05:37:48.982Z,9.38
2018-09-01T05:38:49.003Z,9.35
2018-09-01T05:39:49.111Z,9.33
2018-09-01T05:40:48.977Z,9.33
2018-09-01T05:41:48.996Z,9.22
2018-09-01T05:42:48.992Z,9.17
2018-09-01T05:43:50.202Z,9.28
2018-09-01T05:44:48.997Z,9.37
2018-09-01T05:45:48.975Z,9.28
2018-09-01T05:46:48.998Z,9.32
2018-09-01T05:47:48.991Z,9.16
2018-09-01T05:48:48.986Z,9.22
2018-09-01T05:49:49.024Z,9.04
2018-09-01T05:50:49.621Z,9.04
2018-09-01T05:51:49.076Z,9.19
2018-09-01T05:52:49.017Z,9.07
2018-09-01T05:53:49.000Z,9.22
2018-09-01T05:54:48.983Z,9.17
2018-09-01T05:55:48.998Z,9.03
2018-09-01T05:56:49.024Z,9.06
2018-09-01T05:57:49.012Z,8.99
2018-09-01T05:58:48.997Z,8.88
2018-09-01T05:59:48.984Z,8.95
2018-09-01T06:00:49.178Z,9.14
2018-09-01T06:01:49.036Z,9.22
2018-09-01T06:02:49.051Z,9.25
2018-09-01T06:03:49.109Z,9.22
2018-09-01T06:04:49.063Z,9.11
2018-09-01T06:05:49.448Z,9.15
2018-09-01T06:06:49.393Z,9.14
2018-09-01T06:07:49.035Z,9.13
2018-09-01T06:08:49.005Z,9.02
2018-09-01T06:09:49.299Z,8.88
2018-09-01T06:10:49.109Z,9.1
2018-09-01T06:11:49.069Z,9.19
2018-09-01T06:12:49.107Z,8.9
2018-09-01T06:13:49.011Z,9.06
2018-09-01T06:14:49.048Z,9.19
2018-09-01T06:15:49.284Z,9.07
2018-09-01T06:16:49.048Z,9.04
2018-09-01T06:17:49.339Z,9.24
2018-09-01T06:18:49.058Z,9.09
2018-09-01T06:19:49.051Z,9.14
2018-09-01T06:20:49.011Z,9
2018-09-01T06:21:49.035Z,9.02
2018-09-01T06:22:49.064Z,9.23
2018-09-01T06:23:49.278Z,9.23
2018-09-01T06:24:49.577Z,9.19
2018-09-01T06:25:49.049Z,9.19
2018-09-01T06:26:49.085Z,9.16
2018-09-01T06:27:49.040Z,8.93
2018-09-01T06:28:49.039Z,9.03
2018-09-01T06:29:49.169Z,9.25
2018-09-01T06:30:49.063Z,9.32
2018-09-01T06:31:49.039Z,9.26
2018-09-01T06:32:49.578Z,9.22
2018-09-01T06:33:49.026Z,9.28
2018-09-01T06:34:49.415Z,9.14
2018-09-01T06:35:49.080Z,9.03
2018-09-01T06:36:49.030Z,9.28
2018-09-01T06:37:49.036Z,9.33
2018-09-01T06:38:49.026Z,9.47
2018-09-01T06:39:49.074Z,9.33
2018-09-01T06:40:49.065Z,9.47
2018-09-01T06:41:49.423Z,9.43
2018-09-01T06:42:49.183Z,9.39
2018-09-01T06:43:49.060Z,9.33
2018-09-01T06:44:49.044Z,9.39
2018-09-01T06:45:49.191Z,9.36
2018-09-01T06:46:49.054Z,9.5
2018-09-01T06:47:49.281Z,9.58
2018-09-01T06:48:49.052Z,9.7
2018-09-01T06:49:49.787Z,9.82
2018-09-01T06:50:49.121Z,9.64
2018-09-01T06:51:49.044Z,9.55
2018-09-01T06:52:49.070Z,9.63
2018-09-01T06:53:49.057Z,9.55
2018-09-01T06:54:49.179Z,9.7
2018-09-01T06:55:49.046Z,9.66
2018-09-01T06:56:49.334Z,9.72
2018-09-01T06:57:49.121Z,9.84
2018-09-01T06:58:49.091Z,9.84
2018-09-01T06:59:49.079Z,9.82
2018-09-01T07:00:49.232Z,10.02
2018-09-01T07:01:49.076Z,10.04
2018-09-01T07:02:49.109Z,10.13
2018-09-01T07:03:49.116Z,10.07
2018-09-01T07:04:49.171Z,10.05
2018-09-01T07:05:49.117Z,9.92
2018-09-01T07:06:49.103Z,9.83
2018-09-01T07:07:49.107Z,9.94
2018-09-01T07:08:50.096Z,9.99
2018-09-01T07:09:49.088Z,9.83
2018-09-01T07:10:49.093Z,9.7
2018-09-01T07:11:49.078Z,9.69
2018-09-01T07:12:49.067Z,9.8
2018-09-01T07:13:49.225Z,9.88
2018-09-01T07:14:49.110Z,9.53
2018-09-01T07:15:49.378Z,9.53
2018-09-01T07:16:49.096Z,9.7
2018-09-01T07:17:49.137Z,9.72
2018-09-01T07:18:49.098Z,9.67
2018-09-01T07:19:49.145Z,9.82
2018-09-01T07:20:49.078Z,9.72
2018-09-01T07:21:49.270Z,9.92
2018-09-01T07:22:49.403Z,10.01
2018-09-01T07:23:49.326Z,9.86
2018-09-01T07:24:49.126Z,9.96
2018-09-01T07:25:49.297Z,9.97
2018-09-01T07:26:49.092Z,10.04
2018-09-01T07:27:49.109Z,10.14
2018-09-01T07:28:49.185Z,10.16
2018-09-01T07:29:49.243Z,10.05
2018-09-01T07:30:51.776Z,10.09
2018-09-01T07:31:49.147Z,10.26
2018-09-01T07:32:49.353Z,10.15
2018-09-01T07:33:49.181Z,10.03
2018-09-01T07:34:49.089Z,10.07
2018-09-01T07:35:49.190Z,10.19
2018-09-01T07:36:49.494Z,10.31
2018-09-01T07:37:49.315Z,10.29
2018-09-01T07:38:49.151Z,10.32
2018-09-01T07:39:49.171Z,10.08
2018-09-01T07:40:49.114Z,9.95
2018-09-01T07:41:49.175Z,10.08
2018-09-01T07:42:49.907Z,10.12
2018-09-01T07:43:49.547Z,9.92
2018-09-01T07:44:49.257Z,9.37
2018-09-01T07:45:49.481Z,9.48
2018-09-01T07:46:49.121Z,9.62
2018-09-01T07:47:49.268Z,9.64
2018-09-01T07:48:49.251Z,9.71
2018-09-01T07:49:49.292Z,9.76
2018-09-01T07:50:49.593Z,9.85
2018-09-01T07:51:49.117Z,9.75
2018-09-01T07:52:49.223Z,9.79
2018-09-01T07:53:49.145Z,9.85
2018-09-01T07:54:49.331Z,9.76
2018-09-01T07:55:49.221Z,9.68
2018-09-01T07:56:49.318Z,9.96
2018-09-01T07:57:49.175Z,9.86
2018-09-01T07:58:49.163Z,9.86
2018-09-01T07:59:49.167Z,9.84
2018-09-01T08:00:49.210Z,9.96
2018-09-01T08:01:49.177Z,9.82
2018-09-01T08:02:49.682Z,9.75
2018-09-01T08:03:49.192Z,9.76
2018-09-01T08:04:49.134Z,9.62
2018-09-01T08:05:49.258Z,9.65
2018-09-01T08:06:49.316Z,9.53
2018-09-01T08:07:49.198Z,9.52
2018-09-01T08:08:49.148Z,9.5
2018-09-01T08:09:49.280Z,9.64
2018-09-01T08:10:49.132Z,9.82
2018-09-01T08:11:49.160Z,9.79
2018-09-01T08:12:49.139Z,9.93
2018-09-01T08:13:49.466Z,9.88
2018-09-01T08:14:49.271Z,9.96
2018-09-01T08:15:49.648Z,9.85
2018-09-01T08:16:49.260Z,9.94
2018-09-01T08:17:49.259Z,9.93
2018-09-01T08:18:49.259Z,9.87
2018-09-01T08:19:49.163Z,9.9
2018-09-01T08:20:49.149Z,10.01
2018-09-01T08:21:49.205Z,9.76
2018-09-01T08:22:49.176Z,9.91
2018-09-01T08:23:49.250Z,9.65
2018-09-01T08:24:49.187Z,9.77
2018-09-01T08:25:49.300Z,9.63
2018-09-01T08:26:49.209Z,9.79
2018-09-01T08:27:49.213Z,9.76
2018-09-01T08:28:49.178Z,9.63
2018-09-01T08:29:49.224Z,9.64
2018-09-01T08:30:49.312Z,9.69
2018-09-01T08:31:49.246Z,9.95
2018-09-01T08:32:49.219Z,10.02
2018-09-01T08:33:49.684Z,9.84
2018-09-01T08:34:49.268Z,9.56
2018-09-01T08:35:49.176Z,9.2
2018-09-01T08:36:50.171Z,9.29
2018-09-01T08:37:49.156Z,9.7
2018-09-01T08:38:49.173Z,9.7
2018-09-01T08:39:49.225Z,9.72
2018-09-01T08:40:49.537Z,9.66
2018-09-01T08:41:49.232Z,9.33
2018-09-01T08:42:49.348Z,9.58
2018-09-01T08:43:49.209Z,9.61
2018-09-01T08:44:49.568Z,9.59
2018-09-01T08:45:49.889Z,9.6
2018-09-01T08:46:49.415Z,9.86
2018-09-01T08:47:49.190Z,9.79
2018-09-01T08:48:49.196Z,9.49
2018-09-01T08:49:49.427Z,9.36
2018-09-01T08:50:49.310Z,9.59
2018-09-01T08:51:49.314Z,9.32
2018-09-01T08:52:49.381Z,9.66
2018-09-01T08:53:49.186Z,9.73
2018-09-01T08:54:49.468Z,9.75
2018-09-01T08:55:49.402Z,9.46
2018-09-01T08:56:49.243Z,9.42
2018-09-01T08:57:49.273Z,9.69
2018-09-01T08:58:49.224Z,9.76
2018-09-01T08:59:49.244Z,9.54
2018-09-01T09:00:49.438Z,9.48
2018-09-01T09:01:49.225Z,9.65
2018-09-01T09:02:49.266Z,9.72
2018-09-01T09:03:49.216Z,9.82
2018-09-01T09:04:49.419Z,10.13
2018-09-01T09:05:49.207Z,9.89
2018-09-01T09:06:49.247Z,9.83
2018-09-01T09:07:49.212Z,9.63
2018-09-01T09:08:49.274Z,9.68
2018-09-01T09:09:49.304Z,9.66
2018-09-01T09:10:49.208Z,9.75
2018-09-01T09:11:49.245Z,10.06
2018-09-01T09:12:49.239Z,10.26
2018-09-01T09:13:50.101Z,10
2018-09-01T09:14:49.576Z,10.07
2018-09-01T09:15:49.233Z,9.79
2018-09-01T09:16:49.227Z,9.74
2018-09-01T09:17:49.226Z,9.97
2018-09-01T09:18:49.600Z,9.62
2018-09-01T09:19:49.196Z,9.9
2018-09-01T09:20:49.278Z,9.7
2018-09-01T09:21:49.379Z,9.8
2018-09-01T09:22:49.241Z,9.82
2018-09-01T09:23:49.254Z,9.74
2018-09-01T09:24:49.346Z,10.12
2018-09-01T09:25:49.315Z,9.86
2018-09-01T09:26:49.257Z,9.62
2018-09-01T09:27:49.223Z,9.51
2018-09-01T09:28:49.369Z,9.57
2018-09-01T09:29:49.225Z,9.43
2018-09-01T09:30:49.255Z,9.45
2018-09-01T09:31:49.698Z,9.5
2018-09-01T09:32:49.253Z,9.48
2018-09-01T09:33:49.269Z,9.23
2018-09-01T09:34:49.232Z,9.63
2018-09-01T09:35:49.296Z,10.03
2018-09-01T09:36:49.365Z,10.12
2018-09-01T09:37:49.231Z,9.59
2018-09-01T09:38:49.232Z,9.8
2018-09-01T09:39:49.326Z,9.41
2018-09-01T09:40:49.341Z,9.62
2018-09-01T09:41:49.660Z,9.64
2018-09-01T09:42:49.255Z,9.79
2018-09-01T09:43:49.264Z,9.12
2018-09-01T09:44:49.272Z,9.44
2018-09-01T09:45:49.270Z,9.38
2018-09-01T09:46:49.278Z,9.24
2018-09-01T09:47:49.262Z,9.09
2018-09-01T09:48:49.278Z,9.27
2018-09-01T09:49:49.597Z,9.32
2018-09-01T09:50:49.247Z,9.37
2018-09-01T09:51:49.339Z,9.15
2018-09-01T09:52:49.457Z,9.14
2018-09-01T09:53:49.316Z,9.03
2018-09-01T09:54:49.284Z,9.17
2018-09-01T09:55:49.429Z,9.23
2018-09-01T09:56:49.288Z,9.04
2018-09-01T09:57:49.568Z,9.09
2018-09-01T09:58:49.262Z,8.85
2018-09-01T09:59:49.291Z,8.94
2018-09-01T10:00:49.501Z,8.95
2018-09-01T10:01:49.702Z,9.43
2018-09-01T10:02:50.564Z,9.48
2018-09-01T10:03:49.422Z,9.18
2018-09-01T10:04:49.473Z,9.45
2018-09-01T10:05:49.447Z,9.3
2018-09-01T10:06:49.309Z,9.15
2018-09-01T10:07:49.333Z,9.06
2018-09-01T10:08:49.344Z,9.27
2018-09-01T10:09:49.305Z,9.17
2018-09-01T10:10:49.325Z,8.78
2018-09-01T10:11:49.327Z,9.08
2018-09-01T10:12:49.514Z,9.32
2018-09-01T10:13:49.382Z,9.52
2018-09-01T10:14:49.314Z,9.6
2018-09-01T10:15:49.769Z,9.43
2018-09-01T10:16:49.833Z,9.27
2018-09-01T10:17:49.421Z,9.22
2018-09-01T10:18:49.340Z,9.33
2018-09-01T10:19:49.323Z,9.18
2018-09-01T10:20:49.311Z,9.08
2018-09-01T10:21:49.902Z,8.85
2018-09-01T10:22:49.706Z,9.02
2018-09-01T10:23:49.589Z,9.18
2018-09-01T10:24:49.392Z,8.76
2018-09-01T10:25:49.295Z,8.92
2018-09-01T10:26:49.936Z,8.55
2018-09-01T10:27:49.281Z,8.85
2018-09-01T10:28:49.307Z,9.13
2018-09-01T10:29:49.929Z,8.98
2018-09-01T10:30:49.582Z,9.2
2018-09-01T10:31:49.653Z,8.77
2018-09-01T10:32:49.445Z,8.9
2018-09-01T10:33:49.356Z,8.93
2018-09-01T10:34:49.362Z,9.18
2018-09-01T10:35:49.354Z,8.64
2018-09-01T10:36:49.315Z,8.57
2018-09-01T10:37:49.344Z,8.47
2018-09-01T10:38:49.369Z,8.92
2018-09-01T10:39:49.318Z,8.97
2018-09-01T10:40:49.339Z,8.61
2018-09-01T10:41:49.331Z,8.61
2018-09-01T10:42:49.316Z,8.71
2018-09-01T10:43:49.318Z,8.65
2018-09-01T10:44:49.783Z,9.2
2018-09-01T10:45:49.357Z,9.08
2018-09-01T10:46:49.552Z,8.92
2018-09-01T10:47:49.425Z,9.11
2018-09-01T10:48:49.604Z,9.49
2018-09-01T10:49:49.469Z,9.27
2018-09-01T10:50:49.616Z,9.16
2018-09-01T10:51:49.325Z,9.26
2018-09-01T10:52:49.632Z,8.86
2018-09-01T10:53:49.845Z,8.39
2018-09-01T10:54:49.538Z,8.42
2018-09-01T10:55:49.366Z,7.91
2018-09-01T10:56:49.486Z,8.21
2018-09-01T10:57:49.326Z,8.16
2018-09-01T10:58:49.551Z,8.23
2018-09-01T10:59:49.950Z,7.85
2018-09-01T11:00:49.332Z,7.88
2018-09-01T11:01:49.379Z,7.64
2018-09-01T11:02:49.502Z,7.56
2018-09-01T11:03:49.385Z,7.77
2018-09-01T11:04:49.399Z,7.78
2018-09-01T11:05:49.372Z,7.77
2018-09-01T11:06:49.351Z,7.7
2018-09-01T11:07:49.342Z,7.85
2018-09-01T11:08:49.344Z,7.91
2018-09-01T11:09:49.851Z,8.14
2018-09-01T11:10:49.409Z,7.73
2018-09-01T11:11:49.479Z,7.47
2018-09-01T11:12:49.357Z,7.67
2018-09-01T11:13:49.427Z,7.55
2018-09-01T11:14:49.403Z,7.42
2018-09-01T11:15:49.375Z,7.53
2018-09-01T11:16:49.384Z,7.56
2018-09-01T11:17:49.367Z,7.43
2018-09-01T11:18:49.356Z,7.64
2018-09-01T11:19:49.408Z,7.69
2018-09-01T11:20:49.728Z,7.46
2018-09-01T11:21:50.198Z,7.54
2018-09-01T11:22:49.451Z,7.52
2018-09-01T11:23:49.367Z,7.6
2018-09-01T11:24:49.455Z,7.53
2018-09-01T11:25:49.372Z,7.35
2018-09-01T11:26:49.395Z,7.31
2018-09-01T11:27:49.740Z,7.24
2018-09-01T11:28:49.426Z,7.28
2018-09-01T11:29:49.480Z,7.27
2018-09-01T11:30:49.587Z,7.48
2018-09-01T11:31:50.111Z,7.1
2018-09-01T11:32:49.506Z,7.04
2018-09-01T11:33:49.710Z,7.45
2018-09-01T11:34:49.506Z,7.22
2018-09-01T11:35:49.411Z,7.27
2018-09-01T11:36:49.717Z,7
2018-09-01T11:37:50.568Z,7.23
2018-09-01T11:38:49.438Z,7.31
2018-09-01T11:39:49.557Z,7.38
2018-09-01T11:40:49.552Z,7.41
2018-09-01T11:41:49.368Z,7.59
2018-09-01T11:42:50.685Z,7.54
2018-09-01T11:43:49.513Z,7.72
2018-09-01T11:44:49.609Z,7.96
2018-09-01T11:45:49.582Z,7.78
2018-09-01T11:46:49.614Z,7.61
2018-09-01T11:47:49.545Z,7.37
2018-09-01T11:48:49.570Z,7.42
2018-09-01T11:49:49.430Z,7.14
2018-09-01T11:50:49.548Z,7.08
2018-09-01T11:51:49.581Z,7.03
2018-09-01T11:52:49.499Z,7.1
2018-09-01T11:53:49.487Z,7.1
2018-09-01T11:54:49.440Z,7.19
2018-09-01T11:55:49.988Z,7.14
2018-09-01T11:56:49.472Z,7.02
2018-09-01T11:57:49.479Z,7.08
2018-09-01T11:58:50.882Z,6.98
2018-09-01T11:59:49.492Z,7.46
2018-09-01T12:00:49.581Z,7.22
2018-09-01T12:01:49.710Z,7.04
2018-09-01T12:02:49.499Z,7.24
2018-09-01T12:03:49.827Z,7.34
2018-09-01T12:04:49.534Z,7.4
2018-09-01T12:05:49.478Z,7.45
2018-09-01T12:06:49.873Z,7.48
2018-09-01T12:07:49.734Z,7.45
2018-09-01T12:08:49.733Z,7.12
2018-09-01T12:09:49.432Z,7.22
2018-09-01T12:10:49.489Z,6.73
2018-09-01T12:11:49.971Z,6.91
2018-09-01T12:12:49.433Z,6.84
2018-09-01T12:13:49.455Z,7.18
2018-09-01T12:14:49.576Z,6.84
2018-09-01T12:15:49.937Z,6.59
2018-09-01T12:16:49.488Z,6.93
2018-09-01T12:17:49.771Z,7.27
2018-09-01T12:18:49.564Z,6.73
2018-09-01T12:19:49.446Z,6.46
2018-09-01T12:20:49.478Z,6.62
2018-09-01T12:21:49.471Z,6.47
2018-09-01T12:22:49.531Z,6.79
2018-09-01T12:23:49.436Z,6.88
2018-09-01T12:24:49.472Z,6.71
2018-09-01T12:25:49.435Z,6.64
2018-09-01T12:26:49.532Z,6.76
2018-09-01T12:27:49.743Z,6.75
2018-09-01T12:28:49.554Z,6.97
2018-09-01T12:29:49.582Z,6.66
2018-09-01T12:30:49.489Z,6.91
2018-09-01T12:31:49.462Z,7.13
2018-09-01T12:32:49.495Z,7.15
2018-09-01T12:33:49.489Z,7.1
2018-09-01T12:34:49.612Z,7.13
2018-09-01T12:35:49.517Z,6.84
2018-09-01T12:36:49.468Z,6.88
2018-09-01T12:37:49.635Z,6.28
2018-09-01T12:38:49.449Z,6.77
2018-09-01T12:39:49.465Z,6.83
2018-09-01T12:40:49.473Z,6.85
2018-09-01T12:41:50.047Z,6.76
2018-09-01T12:42:49.482Z,7.16
2018-09-01T12:43:49.532Z,7.09
2018-09-01T12:44:49.670Z,6.85
2018-09-01T12:45:49.789Z,6.91
2018-09-01T12:46:49.524Z,6.63
2018-09-01T12:47:49.575Z,6.56
2018-09-01T12:48:49.580Z,6.52
2018-09-01T12:49:49.476Z,7.12
2018-09-01T12:50:49.588Z,7.21
2018-09-01T12:51:49.599Z,7.04
2018-09-01T12:52:50.475Z,7.57
2018-09-01T12:53:49.747Z,6.66
2018-09-01T12:54:49.620Z,6.87
2018-09-01T12:55:49.881Z,7.42
2018-09-01T12:56:49.539Z,6.42
2018-09-01T12:57:49.582Z,6.53
2018-09-01T12:58:49.683Z,6.54
2018-09-01T12:59:49.703Z,6.53
2018-09-01T13:00:50.597Z,6.35
2018-09-01T13:01:49.603Z,6.49
2018-09-01T13:02:49.537Z,5.98
2018-09-01T13:03:49.504Z,6.35
2018-09-01T13:04:49.542Z,7
2018-09-01T13:05:49.509Z,6.64
2018-09-01T13:06:49.529Z,6.27
2018-09-01T13:07:50.109Z,7.09
2018-09-01T13:08:49.517Z,6.76
2018-09-01T13:09:49.840Z,6.66
2018-09-01T13:10:49.500Z,6.61
2018-09-01T13:11:49.532Z,6.77